Time;durP1;ratioP1;P1;durP2;ratioP2;P2;SDS_P1;SDS_P2;PMS_P1;PMS_P2;Temp;Humidity;BMP_temperature;BMP_pressure;BME280_temperature;BME280_humidity;BME280_pressure;Samples;Min_cycle;Max_cycle;Signal;HPM_P1;HPM_P2
2022/08/24 00:00:34;;;;;;;7.15;1.90;;;;;;;21.11;56.47;98567.25;5091725;28;20024;-50
2022/08/24 00:03:00;;;;;;;4.00;1.85;;;;;;;21.09;56.52;98576.59;5090440;28;20039;-49
2022/08/24 00:05:26;;;;;;;5.32;1.90;;;;;;;21.14;56.48;98565.91;5090314;28;20499;-49
2022/08/24 00:07:51;;;;;;;3.92;1.80;;;;;;;21.17;56.24;98577.91;5091679;28;20034;-49
2022/08/24 00:10:20;;;;;;;5.22;2.00;;;;;;;21.11;56.52;98577.13;5090372;28;20024;-49
2022/08/24 00:12:46;;;;;;;5.50;2.13;;;;;;;21.06;56.63;98577.94;5090339;28;20627;-49
2022/08/24 00:15:14;;;;;;;7.78;1.90;;;;;;;20.94;56.99;98580.91;5091655;28;20032;-49
2022/08/24 00:17:40;;;;;;;6.55;1.95;;;;;;;20.84;57.40;98574.78;5094035;28;20024;-49
2022/08/24 00:20:09;;;;;;;8.52;1.90;;;;;;;20.81;57.96;98573.47;5094295;28;20127;-49
2022/08/24 00:22:34;;;;;;;7.80;2.08;;;;;;;20.73;58.04;98564.16;5094271;28;20540;-49
2022/08/24 00:25:00;;;;;;;4.22;2.03;;;;;;;20.74;58.45;98570.28;5094250;28;20024;-50
2022/08/24 00:27:26;;;;;;;7.28;2.00;;;;;;;20.76;58.18;98568.13;5095402;28;20417;-47
2022/08/24 00:29:52;;;;;;;4.47;1.98;;;;;;;20.80;58.10;98574.53;5093902;28;20537;-47
2022/08/24 00:32:18;;;;;;;3.60;1.92;;;;;;;20.80;57.85;98566.53;5094116;28;20067;-47
2022/08/24 00:34:43;;;;;;;3.92;1.98;;;;;;;20.75;58.11;98572.69;5093999;28;20032;-48
2022/08/24 00:37:09;;;;;;;3.63;1.90;;;;;;;20.59;58.58;98572.97;5095540;28;20090;-48
2022/08/24 00:39:35;;;;;;;7.40;2.10;;;;;;;20.42;59.11;98571.34;5095320;28;20471;-48
2022/08/24 00:42:01;;;;;;;7.32;1.98;;;;;;;20.34;59.18;98572.69;5095148;28;20097;-48
2022/08/24 00:44:27;;;;;;;5.18;2.20;;;;;;;20.28;59.45;98568.44;5095167;28;20012;-47
2022/08/24 00:47:00;;;;;;;4.82;2.20;;;;;;;20.25;59.74;98570.81;5095094;28;20115;-48
2022/08/24 00:49:55;;;;;;;2.70;1.48;;;;;;;20.16;60.19;98570.53;5095176;28;20050;-49
2022/08/24 00:52:28;;;;;;;7.65;1.75;;;;;;;20.09;60.49;98568.13;5095101;28;20024;-49
2022/08/24 00:55:07;;;;;;;3.25;1.90;;;;;;;20.05;60.54;98564.41;5095054;28;20028;-50
2022/08/24 00:57:39;;;;;;;7.20;1.75;;;;;;;19.99;60.60;98568.13;5095039;28;20115;-49
2022/08/24 01:00:18;;;;;;;5.00;2.15;;;;;;;19.93;60.86;98569.19;5093627;28;20115;-49
2022/08/24 01:02:47;;;;;;;3.72;2.03;;;;;;;19.89;60.81;98568.91;5093628;28;20070;-49
2022/08/24 01:05:18;;;;;;;2.78;1.65;;;;;;;19.80;61.15;98581.16;5094774;28;20112;-50
2022/08/24 01:07:48;;;;;;;4.80;2.10;;;;;;;19.69;61.79;98571.50;5094705;28;20056;-49
2022/08/24 01:10:19;;;;;;;2.92;1.85;;;;;;;19.65;62.02;98570.44;5094983;28;20030;-50
2022/08/24 01:12:47;;;;;;;2.40;1.70;;;;;;;19.59;62.15;98568.81;5093429;28;20058;-48
2022/08/24 01:15:15;;;;;;;3.75;1.80;;;;;;;19.51;62.30;98567.47;5094604;28;20052;-47
2022/08/24 01:20:26;;;;;;;9.93;1.77;;;;;;;19.41;62.58;98581.53;5094794;28;20031;-47
2022/08/24 01:23:25;;;;;;;6.68;2.00;;;;;;;19.43;62.93;98574.09;5093510;28;20028;-47
2022/08/24 01:25:51;;;;;;;5.78;2.10;;;;;;;19.41;62.66;98578.88;5093447;28;20133;-48
2022/08/24 01:28:20;;;;;;;3.58;2.13;;;;;;;19.33;62.95;98572.19;5093302;28;20024;-47
2022/08/24 01:30:46;;;;;;;3.45;1.70;;;;;;;19.30;63.27;98579.91;5092775;28;20075;-48
2022/08/24 01:33:27;;;;;;;4.93;1.70;;;;;;;19.32;63.15;98594.53;5092908;28;20521;-47
2022/08/24 01:36:07;;;;;;;14.85;9.40;;;;;;;19.32;64.36;98596.41;5094276;28;20077;-47
2022/08/24 01:38:34;;;;;;;7.55;3.10;;;;;;;19.18;64.87;98593.41;5092841;28;20054;-48
2022/08/24 01:41:04;;;;;;;5.28;2.92;;;;;;;18.89;65.75;98595.63;5094113;28;20520;-48
2022/08/24 01:43:30;;;;;;;4.07;2.22;;;;;;;18.64;66.50;98593.59;5094145;28;20081;-47
2022/08/24 01:45:55;;;;;;;6.30;2.30;;;;;;;18.50;67.05;98593.22;5093923;28;20020;-49
2022/08/24 01:48:21;;;;;;;5.70;3.00;;;;;;;18.47;68.00;98599.84;5093992;28;20024;-50
2022/08/24 01:50:47;;;;;;;12.85;6.18;;;;;;;18.50;68.18;98599.34;5093921;28;20515;-49
2022/08/24 01:53:13;;;;;;;10.15;6.95;;;;;;;18.53;67.53;98603.34;5092531;28;20115;-49
2022/08/24 01:55:40;;;;;;;9.80;3.33;;;;;;;18.52;67.48;98591.13;5092489;28;20024;-49
2022/08/24 01:58:06;;;;;;;8.95;3.80;;;;;;;18.60;67.51;98605.78;5093772;28;20020;-49
2022/08/24 02:00:33;;;;;;;6.47;3.22;;;;;;;18.69;67.04;98593.63;5093733;28;20024;-50
2022/08/24 02:02:59;;;;;;;6.78;2.10;;;;;;;18.84;66.57;98598.28;5093685;28;20070;-49
2022/08/24 02:05:24;;;;;;;7.20;2.50;;;;;;;18.90;66.41;98598.06;5092285;28;20055;-49
2022/08/24 02:07:50;;;;;;;5.70;2.30;;;;;;;18.98;66.04;98593.31;5093605;28;20551;-50
2022/08/24 02:10:17;;;;;;;3.05;2.05;;;;;;;19.01;65.37;98593.59;5092222;28;20024;-49
2022/08/24 02:12:56;;;;;;;2.85;1.67;;;;;;;18.94;65.37;98595.69;5092246;28;20115;-49
2022/08/24 02:15:43;;;;;;;11.25;2.28;;;;;;;18.83;66.68;98594.81;5093543;28;20024;-50
2022/08/24 02:18:10;;;;;;;3.42;2.03;;;;;;;18.69;67.18;98598.94;5093435;28;20110;-49
2022/08/24 02:20:39;;;;;;;5.03;2.10;;;;;;;18.45;67.35;98594.00;5093347;28;20024;-49
2022/08/24 02:23:05;;;;;;;14.73;9.02;;;;;;;18.33;67.62;98604.78;5093298;28;20035;-49
2022/08/24 02:25:31;;;;;;;4.68;3.55;;;;;;;18.32;67.81;98597.84;5093150;28;20035;-49
2022/08/24 02:27:59;;;;;;;9.27;5.13;;;;;;;18.39;67.63;98591.53;5093192;28;20018;-49
2022/08/24 02:30:26;;;;;;;5.07;3.00;;;;;;;18.47;67.29;98599.84;5092979;28;20498;-49
2022/08/24 02:32:51;;;;;;;3.17;1.85;;;;;;;18.51;66.92;98595.63;5091879;28;20498;-49
2022/08/24 02:35:17;;;;;;;3.45;2.00;;;;;;;18.49;66.97;98600.41;5091738;28;20119;-49
2022/08/24 02:37:43;;;;;;;3.78;2.15;;;;;;;18.52;66.72;98601.75;5091758;28;20571;-49
2022/08/24 02:40:11;;;;;;;5.28;2.13;;;;;;;18.46;66.49;98597.44;5091527;28;20512;-49
2022/08/24 02:42:36;;;;;;;3.53;1.77;;;;;;;18.41;66.81;98600.88;5091616;28;20443;-49
2022/08/24 02:45:04;;;;;;;3.42;1.70;;;;;;;18.36;66.83;98598.94;5092845;28;20055;-49
2022/08/24 02:47:30;;;;;;;2.63;1.85;;;;;;;18.30;67.17;98607.16;5092824;28;20019;-49
2022/08/24 02:49:56;;;;;;;5.32;2.20;;;;;;;18.24;67.33;98608.16;5091515;28;20082;-49
2022/08/24 02:52:22;;;;;;;3.78;2.15;;;;;;;18.23;67.58;98603.88;5092776;28;20493;-49
2022/08/24 02:54:47;;;;;;;6.78;2.00;;;;;;;18.29;67.46;98597.56;5091444;28;20398;-49
2022/08/24 02:57:13;;;;;;;9.15;2.03;;;;;;;18.29;67.21;98602.88;5091255;28;20076;-49
2022/08/24 02:59:39;;;;;;;3.90;1.83;;;;;;;18.32;66.88;98605.03;5091343;28;20028;-49
2022/08/24 03:02:05;;;;;;;3.65;2.08;;;;;;;18.31;66.67;98600.75;5091267;28;20516;-50
2022/08/24 03:04:31;;;;;;;3.97;1.85;;;;;;;18.29;66.85;98601.03;5091555;28;20532;-50
2022/08/24 03:06:57;;;;;;;7.53;1.88;;;;;;;18.29;66.84;98602.88;5092379;28;20037;-49
2022/08/24 03:09:23;;;;;;;3.90;2.05;;;;;;;18.32;66.58;98602.38;5091188;28;20030;-49
2022/08/24 03:11:48;;;;;;;2.88;1.75;;;;;;;18.29;66.67;98594.91;5092303;28;20026;-49
2022/08/24 03:14:14;;;;;;;3.13;1.98;;;;;;;18.27;66.97;98595.19;5091034;28;20245;-50
2022/08/24 03:16:40;;;;;;;4.30;2.13;;;;;;;18.29;66.88;98597.56;5092303;28;20024;-50
2022/08/24 03:19:06;;;;;;;5.28;1.63;;;;;;;18.30;66.88;98596.53;5090943;28;20058;-49
2022/08/24 03:21:32;;;;;;;4.57;1.83;;;;;;;18.28;66.70;98593.31;5092460;28;20016;-49
2022/08/24 03:23:58;;;;;;;5.05;1.85;;;;;;;18.24;66.74;98603.63;5092258;28;20028;-50
2022/08/24 03:26:23;;;;;;;2.95;1.65;;;;;;;18.33;66.43;98596.00;5090787;28;20065;-49
2022/08/24 03:28:49;;;;;;;5.18;1.88;;;;;;;18.29;66.58;98594.91;5090553;28;20044;-49
2022/08/24 03:31:16;;;;;;;5.95;2.10;;;;;;;18.17;66.77;98587.13;5090862;28;20499;-49
2022/08/24 03:33:42;;;;;;;4.85;1.88;;;;;;;18.12;67.14;98595.81;5092101;28;20512;-50
2022/08/24 03:36:07;;;;;;;3.00;1.80;;;;;;;18.11;67.37;98598.72;5092038;28;20024;-50
2022/08/24 03:38:33;;;;;;;4.03;1.75;;;;;;;18.07;67.29;98598.44;5090750;28;20055;-49
2022/08/24 03:41:00;;;;;;;7.00;1.80;;;;;;;18.04;67.34;98598.94;5090651;28;20031;-49
2022/08/24 03:46:10;;;;;;;5.00;1.55;;;;;;;17.98;67.52;98596.50;5092112;28;20566;-49
2022/08/24 03:48:38;;;;;;;4.60;1.92;;;;;;;17.94;67.59;98591.66;5091887;28;20016;-49
2022/08/24 03:51:06;;;;;;;4.93;1.75;;;;;;;17.94;67.57;98588.22;5091412;28;20035;-49
2022/08/24 03:53:32;;;;;;;3.05;1.83;;;;;;;17.86;68.20;98593.97;5091743;28;20540;-49
2022/08/24 03:55:58;;;;;;;3.45;1.98;;;;;;;17.85;67.96;98592.34;5090516;28;20112;-49
2022/08/24 03:58:24;;;;;;;3.00;1.85;;;;;;;17.81;68.17;98588.56;5091838;28;20048;-48
2022/08/24 04:00:49;;;;;;;3.72;1.48;;;;;;;17.76;68.28;98595.44;5091754;28;20036;-49
2022/08/24 04:03:15;;;;;;;3.08;1.85;;;;;;;17.72;68.35;98594.31;5091811;28;20028;-49
2022/08/24 04:05:41;;;;;;;4.25;1.70;;;;;;;17.71;68.52;98589.28;5090340;28;20073;-49
2022/08/24 04:08:07;;;;;;;5.65;1.80;;;;;;;17.72;68.17;98589.03;5090401;28;20042;-49
2022/08/24 04:10:37;;;;;;;4.90;2.67;;;;;;;17.81;68.28;98599.19;5091732;28;20035;-49
2022/08/24 04:13:05;;;;;;;2.65;2.22;;;;;;;17.87;67.82;98591.09;5091625;28;20432;-49
2022/08/24 04:15:31;;;;;;;4.60;2.20;;;;;;;17.85;67.70;98592.34;5091583;28;20028;-49
2022/08/24 04:17:57;;;;;;;4.40;1.83;;;;;;;17.82;67.95;98598.16;5091683;28;20443;-49
2022/08/24 04:20:24;;;;;;;10.07;2.05;;;;;;;17.85;67.76;98593.19;5090294;28;20080;-49
2022/08/24 04:22:50;;;;;;;4.00;2.53;;;;;;;17.84;67.66;98594.22;5091539;28;20024;-49
2022/08/24 04:25:16;;;;;;;4.90;2.10;;;;;;;17.80;67.90;98592.28;5091606;28;20031;-50
2022/08/24 04:27:41;;;;;;;2.53;1.75;;;;;;;17.74;67.97;98592.22;5090192;28;20012;-49
2022/08/24 04:30:08;;;;;;;2.47;1.90;;;;;;;17.72;67.97;98596.97;5091387;28;20040;-49
2022/08/24 04:32:34;;;;;;;2.75;1.70;;;;;;;17.68;68.05;98595.09;5091575;28;20045;-49
2022/08/24 04:35:00;;;;;;;6.95;1.80;;;;;;;17.68;68.42;98595.88;5091468;28;20024;-49
2022/08/24 04:37:26;;;;;;;5.22;2.08;;;;;;;17.76;67.97;98592.78;5090174;28;20493;-49
2022/08/24 04:39:52;;;;;;;5.88;2.25;;;;;;;17.75;67.84;98596.50;5091430;28;20055;-49
2022/08/24 04:42:18;;;;;;;4.13;1.83;;;;;;;17.72;67.81;98596.19;5091379;28;20044;-49
2022/08/24 04:44:44;;;;;;;5.68;2.20;;;;;;;17.75;68.02;98599.16;5091433;28;20021;-49
2022/08/24 04:47:10;;;;;;;6.70;2.10;;;;;;;17.76;67.72;98599.94;5089974;28;20555;-49
2022/08/24 04:49:37;;;;;;;3.72;1.88;;;;;;;17.76;67.87;98597.28;5090078;28;20032;-50
2022/08/24 04:52:03;;;;;;;9.65;2.38;;;;;;;17.78;67.67;98595.97;5091327;28;20506;-49
2022/08/24 04:54:31;;;;;;;2.08;1.70;;;;;;;17.79;67.59;98596.81;5091319;28;20082;-48
2022/08/24 04:56:57;;;;;;;4.53;2.15;;;;;;;17.75;67.63;98604.47;5091478;28;20028;-49
2022/08/24 04:59:23;;;;;;;5.47;2.15;;;;;;;17.78;67.53;98601.28;5091246;28;20024;-49
2022/08/24 05:01:49;;;;;;;10.05;2.35;;;;;;;17.79;67.31;98599.47;5091189;28;20043;-48
2022/08/24 05:04:14;;;;;;;4.93;2.35;;;;;;;17.81;67.47;98609.81;5091469;28;20055;-48
2022/08/24 05:06:41;;;;;;;5.30;2.30;;;;;;;17.85;67.28;98597.66;5093378;28;20479;-49
2022/08/24 05:09:07;;;;;;;7.20;4.40;;;;;;;17.94;67.09;98604.16;5094796;28;20468;-49
2022/08/24 05:11:39;;;;;;;7.53;5.22;;;;;;;18.04;66.57;98609.56;5093398;28;20024;-49
2022/08/24 05:14:06;;;;;;;3.65;2.47;;;;;;;18.50;65.63;98609.97;5094759;28;20027;-49
2022/08/24 05:16:33;;;;;;;3.15;1.83;;;;;;;19.15;63.19;98608.03;5094579;28;20032;-49
2022/08/24 05:19:01;;;;;;;5.28;2.15;;;;;;;19.86;61.69;98603.25;5094533;28;20012;-50
2022/08/24 05:21:29;;;;;;;5.00;2.08;;;;;;;20.51;59.37;98609.72;5094424;28;20020;-49
2022/08/24 05:23:55;;;;;;;6.35;4.80;;;;;;;20.78;57.43;98603.34;5094359;28;20036;-48
2022/08/24 05:26:25;;;;;;;7.05;4.20;;;;;;;20.75;56.98;98612.69;5093054;28;20024;-47
2022/08/24 05:29:00;;;;;;;3.13;2.35;;;;;;;21.23;56.25;98606.16;5094260;28;20052;-49
2022/08/24 05:31:28;;;;;;;4.60;2.35;;;;;;;21.71;54.41;98604.69;5093014;28;20119;-48
2022/08/24 05:33:54;;;;;;;6.90;2.03;;;;;;;22.22;53.31;98611.56;5094244;28;20024;-50
2022/08/24 05:36:21;;;;;;;5.20;2.10;;;;;;;22.67;52.04;98617.66;5094204;28;20103;-50
2022/08/24 05:38:48;;;;;;;9.40;3.13;;;;;;;23.01;50.78;98619.47;5094165;28;20028;-49
2022/08/24 05:41:16;;;;;;;5.88;3.15;;;;;;;23.10;49.80;98623.16;5094377;28;20012;-49
2022/08/24 05:43:42;;;;;;;3.30;2.35;;;;;;;23.17;49.96;98617.47;5094102;28;20149;-49
2022/08/24 05:46:08;;;;;;;11.40;8.05;;;;;;;23.16;49.76;98631.13;5092624;28;20024;-50
2022/08/24 05:48:37;;;;;;;7.63;6.15;;;;;;;22.95;49.95;98625.97;5093971;28;20100;-49
2022/08/24 05:51:04;;;;;;;4.20;3.80;;;;;;;22.82;50.39;98624.75;5094251;28;20024;-50
2022/08/24 05:53:30;;;;;;;6.70;2.72;;;;;;;22.49;51.29;98626.38;5092601;28;20031;-49
2022/08/24 05:55:55;;;;;;;5.88;2.35;;;;;;;22.72;51.12;98627.53;5093803;28;20028;-50
2022/08/24 05:58:21;;;;;;;6.85;2.40;;;;;;;22.90;50.25;98626.81;5093851;28;20028;-49
2022/08/24 06:00:49;;;;;;;6.22;2.33;;;;;;;22.83;50.49;98626.34;5093726;28;20028;-50
2022/08/24 06:03:15;;;;;;;6.10;2.20;;;;;;;23.14;50.13;98623.41;5093736;28;20039;-50
2022/08/24 06:05:43;;;;;;;7.03;2.45;;;;;;;23.33;49.40;98626.91;5093555;28;20024;-49
2022/08/24 06:08:09;;;;;;;5.75;2.08;;;;;;;23.42;49.50;98634.31;5093592;28;20028;-47
2022/08/24 06:10:44;;;;;;;7.65;2.22;;;;;;;23.97;48.28;98625.88;5092212;28;20024;-48
2022/08/24 06:13:10;;;;;;;4.97;2.58;;;;;;;24.91;46.00;98633.78;5093522;28;20047;-48
2022/08/24 06:15:38;;;;;;;3.53;2.47;;;;;;;25.25;44.69;98634.53;5092926;28;20130;-47
2022/08/24 06:18:05;;;;;;;7.03;2.70;;;;;;;25.03;45.27;98629.81;5092172;28;20032;-48
2022/08/24 06:20:32;;;;;;;3.38;2.03;;;;;;;25.57;44.60;98632.84;5093409;28;20024;-47
2022/08/24 06:22:58;;;;;;;6.13;1.83;;;;;;;25.78;43.44;98630.53;5092053;28;20052;-47
2022/08/24 06:28:08;;;;;;;5.63;2.13;;;;;;;25.04;44.73;98645.63;5093544;28;20405;-48
2022/08/24 06:30:34;;;;;;;6.15;1.92;;;;;;;25.44;44.35;98642.50;5092687;28;20052;-48
2022/08/24 06:33:04;;;;;;;10.18;2.30;;;;;;;26.36;42.49;98640.53;5093190;28;20031;-47
2022/08/24 06:35:30;;;;;;;14.45;2.00;;;;;;;27.35;40.67;98640.47;5091768;28;20027;-47
2022/08/24 06:37:56;;;;;;;10.55;2.47;;;;;;;28.12;39.02;98634.75;5091713;28;20038;-48
2022/08/24 06:40:23;;;;;;;7.18;2.03;;;;;;;28.90;37.81;98636.56;5092998;28;20028;-49
2022/08/24 06:42:49;;;;;;;5.20;2.13;;;;;;;29.41;37.01;98640.19;5092900;28;20024;-48
2022/08/24 06:45:14;;;;;;;5.35;2.10;;;;;;;29.93;36.40;98634.47;5092859;28;20082;-49
2022/08/24 06:47:40;;;;;;;7.60;2.42;;;;;;;30.27;35.26;98629.91;5092782;28;20037;-50
2022/08/24 06:50:07;;;;;;;4.70;2.50;;;;;;;30.56;34.62;98630.91;5092839;28;20166;-48
2022/08/24 06:52:34;;;;;;;4.72;2.05;;;;;;;30.71;34.31;98643.84;5092800;28;20024;-48
2022/08/24 06:55:00;;;;;;;5.43;2.47;;;;;;;30.52;34.78;98638.13;5092705;28;20024;-48
2022/08/24 06:57:26;;;;;;;7.07;1.90;;;;;;;30.23;35.11;98637.09;5092725;28;20459;-48
2022/08/24 06:59:51;;;;;;;8.40;2.22;;;;;;;30.12;35.15;98633.19;5092700;28;20103;-49
2022/08/24 07:02:18;;;;;;;5.38;2.58;;;;;;;30.40;34.86;98639.66;5092620;28;20024;-49
2022/08/24 07:04:44;;;;;;;6.47;2.10;;;;;;;30.72;34.47;98626.44;5091281;28;20031;-50
2022/08/24 07:07:11;;;;;;;6.07;2.67;;;;;;;31.21;33.62;98636.56;5092531;28;20031;-49
2022/08/24 07:09:37;;;;;;;5.93;1.98;;;;;;;32.14;31.99;98634.00;5092525;28;20497;-49
2022/08/24 07:12:03;;;;;;;9.88;2.08;;;;;;;33.09;30.68;98633.41;5092504;28;20027;-50
2022/08/24 07:14:29;;;;;;;3.58;1.70;;;;;;;34.01;28.96;98633.91;5091108;28;20080;-50
2022/08/24 07:16:55;;;;;;;3.67;1.50;;;;;;;34.67;27.86;98625.88;5092348;28;20064;-50
2022/08/24 07:19:21;;;;;;;7.25;1.83;;;;;;;34.90;27.38;98633.25;5092330;28;20025;-49
2022/08/24 07:21:47;;;;;;;14.00;2.42;;;;;;;35.44;27.21;98629.44;5092277;28;20020;-50
2022/08/24 07:24:13;;;;;;;9.02;2.22;;;;;;;35.99;26.37;98627.06;5092258;28;20020;-48
2022/08/24 07:26:39;;;;;;;5.65;2.67;;;;;;;36.68;25.12;98625.09;5091545;28;20017;-48
2022/08/24 07:29:09;;;;;;;9.73;2.50;;;;;;;37.22;24.57;98625.56;5090616;28;20505;-49
2022/08/24 07:31:38;;;;;;;8.50;2.38;;;;;;;37.28;24.73;98629.53;5090752;28;20032;-49
2022/08/24 07:34:05;;;;;;;4.32;2.25;;;;;;;36.94;25.08;98621.41;5092109;28;20124;-49
2022/08/24 07:36:31;;;;;;;6.00;2.03;;;;;;;36.64;24.89;98625.06;5092037;28;20148;-49
2022/08/24 07:38:57;;;;;;;8.13;2.13;;;;;;;36.47;25.36;98623.72;5090739;28;20143;-50
2022/08/24 07:41:25;;;;;;;7.20;2.17;;;;;;;36.71;25.15;98630.59;5090658;28;20024;-49
2022/08/24 07:43:52;;;;;;;11.60;2.40;;;;;;;36.78;25.49;98627.94;5091986;28;20020;-48
2022/08/24 07:46:18;;;;;;;17.95;3.08;;;;;;;36.48;25.80;98635.44;5090626;28;20108;-48
2022/08/24 07:48:44;;;;;;;17.42;3.70;;;;;;;35.94;26.27;98630.13;5090643;28;20545;-48
2022/08/24 07:51:16;;;;;;;27.05;3.33;;;;;;;35.39;27.54;98633.25;5091874;28;20486;-49
2022/08/24 07:53:42;;;;;;;16.33;2.97;;;;;;;35.53;27.55;98629.94;5091863;28;20031;-49
2022/08/24 07:56:12;;;;;;;18.83;3.20;;;;;;;35.28;27.80;98632.31;5091801;28;20030;-50
2022/08/24 07:58:38;;;;;;;8.93;2.20;;;;;;;35.58;27.51;98640.56;5091773;28;20020;-49
2022/08/24 08:01:05;;;;;;;8.23;2.55;;;;;;;36.27;26.81;98634.03;5091735;28;20027;-49
2022/08/24 08:03:32;;;;;;;16.50;2.42;;;;;;;36.38;26.65;98642.34;5091672;28;20038;-50
2022/08/24 08:06:02;;;;;;;17.05;2.80;;;;;;;36.45;26.69;98639.72;5091660;28;20104;-50
2022/08/24 08:08:28;;;;;;;14.60;2.55;;;;;;;36.08;27.40;98642.38;5091750;28;20020;-50
2022/08/24 08:10:53;;;;;;;9.90;2.63;;;;;;;35.91;27.39;98647.25;5091718;28;20524;-50
2022/08/24 08:13:22;;;;;;;11.45;2.28;;;;;;;36.12;26.76;98637.75;5090449;28;20073;-49
2022/08/24 08:15:49;;;;;;;43.08;5.13;;;;;;;36.70;26.50;98639.97;5090331;28;20024;-50
2022/08/24 08:18:17;;;;;;;15.57;2.22;;;;;;;36.87;25.69;98635.84;5091705;28;20020;-49
2022/08/24 08:20:43;;;;;;;15.55;2.90;;;;;;;36.93;24.95;98644.47;5091625;28;20067;-49
2022/08/24 08:25:56;;;;;;;8.05;1.80;;;;;;;38.78;23.02;98640.34;5091594;28;20081;-48
2022/08/24 08:28:23;;;;;;;17.20;2.10;;;;;;;38.84;22.72;98643.44;5091504;28;20085;-49
2022/08/24 08:30:48;;;;;;;37.40;3.67;;;;;;;38.59;23.11;98637.94;5091288;28;20047;-49
2022/08/24 08:33:15;;;;;;;21.67;3.28;;;;;;;37.62;23.86;98643.06;5090227;28;20424;-51
2022/08/24 08:35:43;;;;;;;7.80;2.00;;;;;;;36.88;24.06;98639.34;5091474;28;20482;-50
2022/08/24 08:38:10;;;;;;;36.55;4.45;;;;;;;37.02;23.83;98638.69;5093224;28;20043;-49
2022/08/24 08:41:06;;;;;;;7.57;1.70;;;;;;;37.35;23.69;98646.78;5095295;28;20077;-49
2022/08/24 08:43:59;;;;;;;6.38;2.15;;;;;;;37.95;23.06;98639.28;5095333;28;20042;-49
2022/08/24 08:46:59;;;;;;;9.00;1.88;;;;;;;38.19;22.73;98646.06;5095424;28;20024;-49
2022/08/24 08:49:45;;;;;;;24.85;3.53;;;;;;;38.45;22.44;98644.94;5093902;28;20028;-49
2022/08/24 08:52:37;;;;;;;15.13;2.55;;;;;;;38.13;22.29;98642.13;5095175;28;20089;-50
2022/08/24 08:55:21;;;;;;;17.65;2.38;;;;;;;37.45;22.85;98649.94;5095004;28;20371;-49
2022/08/24 08:58:09;;;;;;;11.63;1.90;;;;;;;37.46;22.28;98641.34;5095104;28;20105;-49
2022/08/24 09:01:14;;;;;;;36.63;4.40;;;;;;;37.04;23.65;98647.28;5094887;28;20031;-49
2022/08/24 09:04:11;;;;;;;15.43;2.70;;;;;;;36.25;24.13;98641.06;5092021;28;20036;-48
2022/08/24 09:07:07;;;;;;;18.55;3.25;;;;;;;36.35;24.04;98638.44;5094691;28;20063;-50
2022/08/24 09:09:44;;;;;;;20.02;3.80;;;;;;;36.90;23.53;98634.28;5094819;28;20032;-49
2022/08/24 09:12:49;;;;;;;11.55;2.33;;;;;;;37.66;22.87;98625.47;5094742;28;20032;-49
2022/08/24 09:15:30;;;;;;;16.23;2.63;;;;;;;37.88;22.64;98626.34;5094675;28;20115;-50
2022/08/24 09:18:29;;;;;;;9.77;2.25;;;;;;;37.52;22.44;98622.63;5094625;28;20032;-49
2022/08/24 09:21:14;;;;;;;20.42;5.88;;;;;;;37.75;22.86;98625.91;5094578;28;20055;-50
2022/08/24 09:23:40;;;;;;;40.83;10.38;;;;;;;38.25;22.07;98621.78;5094789;28;20035;-51
2022/08/24 09:26:26;;;;;;;42.72;8.48;;;;;;;38.34;22.07;98623.00;5093088;28;20398;-49
2022/08/24 09:29:04;;;;;;;29.35;7.15;;;;;;;38.60;21.34;98623.06;5094194;28;20529;-50
2022/08/24 09:31:50;;;;;;;27.15;3.13;;;;;;;38.98;20.91;98621.53;5094370;28;20394;-50
2022/08/24 09:34:46;;;;;;;20.90;3.40;;;;;;;39.50;20.70;98626.56;5094392;28;20032;-51
2022/08/24 09:37:27;;;;;;;33.08;3.40;;;;;;;39.46;20.13;98617.56;5094306;28;20447;-49
2022/08/24 09:40:25;;;;;;;28.63;2.38;;;;;;;40.01;19.72;98616.22;5092981;28;20085;-50
2022/08/24 09:43:09;;;;;;;6.32;1.80;;;;;;;40.38;19.01;98620.34;5094498;28;20117;-49
2022/08/24 09:45:53;;;;;;;19.55;3.25;;;;;;;39.92;19.97;98614.69;5094089;28;20490;-50
2022/08/24 09:48:55;;;;;;;18.80;2.70;;;;;;;40.73;19.43;98614.59;5094155;28;20016;-49
2022/08/24 09:51:38;;;;;;;12.27;2.13;;;;;;;41.83;18.17;98608.41;5093630;28;20512;-50
2022/08/24 09:54:43;;;;;;;77.55;6.63;;;;;;;42.53;17.68;98607.09;5093948;28;20035;-49
2022/08/24 09:57:43;;;;;;;11.52;2.60;;;;;;;42.93;16.84;98601.72;5093899;28;20486;-48
2022/08/24 10:00:11;;;;;;;16.73;3.30;;;;;;;43.54;16.79;98605.38;5093874;28;20485;-47
2022/08/24 10:02:44;;;;;;;116.47;9.18;;;;;;;43.89;15.85;98603.88;5094035;28;20034;-48
2022/08/24 10:05:50;;;;;;;24.52;2.60;;;;;;;44.30;15.81;98604.59;5093751;28;20040;-48
2022/08/24 10:08:27;;;;;;;17.17;2.78;;;;;;;44.00;15.87;98607.19;5093752;28;20401;-50
2022/08/24 10:11:33;;;;;;;8.40;2.15;;;;;;;44.31;15.64;98603.34;5092324;28;20042;-50
2022/08/24 10:14:13;;;;;;;6.63;1.58;;;;;;;44.60;14.95;98598.72;5093583;28;20020;-50
2022/08/24 10:16:50;;;;;;;14.60;2.25;;;;;;;44.94;14.66;98593.97;5093396;28;20031;-50
2022/08/24 10:19:40;;;;;;;8.80;2.10;;;;;;;44.12;15.34;98593.94;5093457;28;20032;-50
2022/08/24 10:22:38;;;;;;;11.68;2.53;;;;;;;43.52;15.70;98586.44;5093414;28;20021;-49
2022/08/24 10:25:15;;;;;;;8.35;1.70;;;;;;;43.91;15.25;98589.59;5073378;28;20035;-50
2022/08/24 10:27:48;;;;;;;6.57;1.40;;;;;;;44.58;14.96;98586.53;5091958;28;20115;-49
2022/08/24 10:30:51;;;;;;;6.32;1.55;;;;;;;44.98;14.61;98587.13;5093054;28;20446;-49
2022/08/24 10:33:21;;;;;;;8.32;1.52;;;;;;;45.17;14.19;98592.94;5092117;28;20374;-50
2022/08/24 10:36:08;;;;;;;9.05;1.63;;;;;;;45.17;14.07;98590.19;5093129;28;20555;-49
2022/08/24 10:43:32;;;;;;;15.57;2.53;;;;;;;44.47;14.25;98581.25;5093298;28;20038;-50
2022/08/24 10:45:07;;;;;;;11.05;1.92;;;;;;;44.52;14.40;98585.50;5092726;28;20038;-49
2022/08/24 10:47:35;;;;;;;18.75;2.70;;;;;;;44.58;14.30;98575.47;5092831;28;20031;-50
2022/08/24 10:50:04;;;;;;;15.27;2.40;;;;;;;44.47;14.74;98572.94;5092824;28;20112;-50
2022/08/24 10:53:00;;;;;;;14.98;2.80;;;;;;;44.65;14.15;98565.00;5091484;28;20111;-49
2022/08/24 10:55:30;;;;;;;11.50;2.20;;;;;;;44.73;13.81;98568.34;5093016;28;20036;-49
2022/08/24 10:58:04;;;;;;;12.88;2.13;;;;;;;44.55;13.77;98559.72;5091418;28;20382;-49
2022/08/24 11:00:31;;;;;;;22.55;3.28;;;;;;;44.67;13.66;98568.09;5091286;28;20501;-50
2022/08/24 11:03:25;;;;;;;3.85;1.40;;;;;;;44.33;13.75;98564.97;5092663;28;20028;-48
2022/08/24 11:05:55;;;;;;;4.70;1.70;;;;;;;44.00;13.84;98557.41;5090897;28;20028;-49
2022/08/24 11:08:27;;;;;;;19.17;2.72;;;;;;;43.92;13.66;98553.22;5091477;28;20027;-48
2022/08/24 11:11:12;;;;;;;7.32;1.67;;;;;;;44.24;13.57;98546.97;5092483;28;20020;-50
2022/08/24 11:13:51;;;;;;;8.30;1.92;;;;;;;44.19;14.01;98552.25;5092398;28;20020;-49
2022/08/24 11:16:26;;;;;;;11.50;2.30;;;;;;;44.41;13.48;98550.53;5091097;28;20066;-49
2022/08/24 11:18:55;;;;;;;16.52;2.03;;;;;;;44.35;14.07;98551.47;5092663;28;20016;-49
2022/08/24 11:21:47;;;;;;;13.13;2.33;;;;;;;44.65;13.84;98537.31;5091008;28;20024;-50
2022/08/24 11:24:23;;;;;;;13.75;2.05;;;;;;;44.67;13.38;98554.25;5091019;28;20024;-48
2022/08/24 11:27:33;;;;;;;5.45;1.70;;;;;;;44.60;13.45;98545.38;5092178;28;20024;-48
2022/08/24 11:30:10;;;;;;;20.08;1.92;;;;;;;44.87;12.73;98547.84;5062944;28;20123;-47
2022/08/24 11:32:43;;;;;;;4.68;1.42;;;;;;;44.98;12.92;98542.78;5092189;28;20059;-48
2022/08/24 11:35:15;;;;;;;;;;;;;;;45.27;13.08;98547.56;5092605;28;20623;-47
2022/08/24 11:37:41;;;;;;;13.90;2.10;;;;;;;44.79;13.42;98538.13;5091076;28;19912;-49
2022/08/24 11:40:09;;;;;;;3.35;1.38;;;;;;;44.55;13.73;98538.34;5092057;28;20107;-48
2022/08/24 11:42:48;;;;;;;4.57;1.50;;;;;;;44.17;13.32;98541.63;5092042;28;20248;-49
2022/08/24 11:45:41;;;;;;;6.53;1.70;;;;;;;44.10;14.17;98543.78;5090728;28;20024;-49
2022/08/24 11:48:28;;;;;;;28.53;2.30;;;;;;;43.56;14.29;98542.16;5092216;28;20027;-50
2022/08/24 11:51:04;;;;;;;2.25;1.55;;;;;;;42.70;14.29;98542.56;5092065;28;20028;-48
2022/08/24 11:53:39;;;;;;;8.73;1.67;;;;;;;41.62;14.90;98540.59;5090638;28;20028;-50
2022/08/24 11:56:17;;;;;;;8.32;2.08;;;;;;;41.56;15.28;98544.19;5091960;28;20016;-48
2022/08/24 11:58:56;;;;;;;4.47;1.40;;;;;;;41.50;15.41;98544.63;5091903;28;20409;-49
2022/08/24 12:01:38;;;;;;;4.85;1.58;;;;;;;41.48;15.12;98537.97;5091899;28;20052;-49
2022/08/24 12:04:20;;;;;;;7.15;1.70;;;;;;;41.40;14.91;98547.53;5091945;28;20520;-49
2022/08/24 12:06:54;;;;;;;6.15;1.70;;;;;;;41.41;15.37;98547.09;5091845;28;20089;-50